Meteo Giornale » Osservazioni meteo Svizzera » Samedan

ore: 00:50 - Osservazioni Meteo Samedan
Lat. 46° 32' N Lon. 9° 53' E Alt. 1706 metri s.l.m.

sereno Europe/Zurich

-5 °C

Sereno

Temp. 24 Ore

-5 °C

10 °C

Nord

3.7 Km/h

Dew point -6 °C

Umidità 92 %

Visibilità  10 Km

Il sole sorge alle ore 07:21

Il sole tramonta alle ore 16:48

Data e Ora Cielo e Fenomeni T °C DP °C Um. % Pres. hPa Vis. km Vento km/h
Oggi h: 00:50 sereno Sereno -5 -6 92 1028 10 N 3.7
Oggi h: 00:20 sereno Sereno -5 -7 85 1028 10 N 3.7
Ieri h: 23:50 sereno Sereno -4 -6 85 1029 10 N 3.7
Ieri h: 23:20 sereno Sereno -5 -7 85 1029 10 N 3.7
Ieri h: 22:50 sereno Sereno -4 -6 85 1029 10 N 3.7
Ieri h: 22:20 sereno Sereno -3 -5 86 1029 10 N 3.7
Ieri h: 21:50 sereno Sereno -3 -5 86 1029 10 N 3.7
Ieri h: 21:20 sereno Sereno -3 -5 86 1029 10 N 1.8
Ieri h: 20:50 sereno Sereno -2 -5 79 1029 10 N 3.7
Ieri h: 20:20 sereno Sereno -3 -5 86 1029 10 N 3.7
Ieri h: 19:50 sereno Sereno -2 -4 86 1029 10 N 0
Ieri h: 19:20 sereno Sereno -3 -5 86 1029 10 N 3.7
Ieri h: 18:50 sereno Sereno -3 -5 86 1029 10 N 3.7
Ieri h: 18:20 sereno Sereno 0 -4 74 1029 10 N 3.7
Ieri h: 17:50 sereno Sereno -2 -6 73 1029 10 N 3.7
Ieri h: 17:20 sereno Sereno 2 -3 69 1029 10 N 1.8
Ieri h: 16:50 sereno Sereno 2 -4 64 1028 10 N 1.8
Ieri h: 16:20 sereno Sereno 6 -2 56 1028 10 N 5.5
Ieri h: 15:50 sereno Sereno 8 -4 42 1028 10 S 9.3
Ieri h: 15:20 sereno Sereno 9 -2 45 1028 10 O/SO 9.3
Ieri h: 14:50 sereno Sereno 10 -2 42 1028 10 SO 9.3
Ieri h: 14:20 sereno Sereno 10 -2 42 1028 10 SO 9.3
Ieri h: 13:50 sereno Sereno 10 -2 42 1028 10 SO 7.4
Ieri h: 13:20 sereno Sereno 10 -2 42 1029 10 N 3.7
Ieri h: 12:50 sereno Sereno 8 -1 52 1029 10 N 1.8
Ieri h: 12:20 sereno Sereno 6 0 65 1029 10 N 1.8
Ieri h: 11:50 sereno Sereno 5 -1 65 1030 10 N 3.7
Ieri h: 11:20 sereno Sereno 3 -0 80 1030 10 N 1.8
Ieri h: 10:50 sereno Sereno 2 -1 80 1031 10 N 1.8
Ieri h: 10:20 sereno Sereno 0 -0 100 1031 10 N 1.8
Ieri h: 09:50 sereno Sereno -1 -1 100 1031 10 N 0
Ieri h: 09:20 sereno Sereno -3 -3 100 1031 10 N 0
Ieri h: 08:50 sereno Sereno -4 -4 100 1031 10 N 1.8
Ieri h: 08:20 sereno Sereno -4 -4 100 1031 10 N 3.7
Ieri h: 07:50 sereno Sereno -4 -5 92 1031 10 N 1.8
Ieri h: 07:20 sereno Sereno -4 -5 92 1031 10 N 1.8
Ieri h: 06:50 sereno Sereno -4 -5 92 1031 10 N 3.7
Ieri h: 06:20 sereno Sereno -5 -5 100 1031 10 N 3.7
Ieri h: 05:50 sereno Sereno -4 -4 100 1031 10 N 1.8
Ieri h: 05:20 sereno Sereno -4 -4 100 1031 10 N 1.8
Ieri h: 04:50 sereno Sereno -3 -4 92 1031 10 N 1.8
Ieri h: 04:20 nebbia Nebbia Congelantesi -3 -3 100 1031 0.6 N 1.8
Ieri h: 03:50 sereno Sereno -3 -3 100 1031 10 N 3.7
Ieri h: 03:20 sereno Sereno -3 -3 100 1031 10 N 3.7
Ieri h: 02:50 sereno Sereno -3 -3 100 1031 10 N 1.8
Ieri h: 02:20 sereno Sereno -4 -4 100 1031 10 N 1.8
Ieri h: 01:50 sereno Sereno -3 -3 100 1031 10 N 1.8
Ieri h: 01:20 sereno Sereno -4 -4 100 1032 10 N 3.7
Ieri h: 00:50 sereno Sereno -2 -3 92 1032 10 N 1.8